Time;durP1;ratioP1;P1;durP2;ratioP2;P2;SDS_P1;SDS_P2;PMS_P1;PMS_P2;Temp;Humidity;BMP_temperature;BMP_pressure;BME280_temperature;BME280_humidity;BME280_pressure;Samples;Min_cycle;Max_cycle;Signal;HPM_P1;HPM_P2
2022/06/13 00:01:43;;;;;;;;;10.75;10.25;;;;;21.73;55.69;98827.75;6226827;27;96897;-74
2022/06/13 00:04:46;;;;;;;;;9.50;9.00;;;;;21.70;55.42;98819.28;6227133;28;96699;-74
2022/06/13 00:07:50;;;;;;;;;13.00;10.00;;;;;21.60;55.49;98809.25;6237074;28;96600;-75
2022/06/13 00:10:53;;;;;;;;;9.40;8.00;;;;;21.52;55.54;98802.50;6221402;28;99656;-74
2022/06/13 00:13:58;;;;;;;;;9.00;8.00;;;;;21.46;55.87;98806.41;6229138;28;97422;-75
2022/06/13 00:17:02;;;;;;;;;11.00;10.00;;;;;21.14;56.00;98755.03;6235324;28;96639;-74
2022/06/13 00:20:07;;;;;;;;;9.00;8.60;;;;;21.40;56.51;98798.56;6235742;28;97134;-74
2022/06/13 00:23:10;;;;;;;;;9.20;9.00;;;;;21.40;55.96;98784.84;6236857;28;98365;-75
2022/06/13 00:26:14;;;;;;;;;9.00;9.00;;;;;21.34;56.36;98773.13;6224426;28;96880;-74
2022/06/13 00:29:19;;;;;;;;;11.00;10.00;;;;;21.41;56.56;98786.47;6237736;28;98269;-75
2022/06/13 00:32:22;;;;;;;;;11.40;10.00;;;;;21.41;56.04;98776.31;6233369;27;97386;-73
2022/06/13 00:35:25;;;;;;;;;12.60;11.60;;;;;21.44;55.89;98781.22;6237718;27;97465;-73
2022/06/13 00:38:28;;;;;;;;;10.25;9.25;;;;;21.46;56.15;98775.44;6233417;28;97723;-73
2022/06/13 00:41:35;;;;;;;;;12.00;10.20;;;;;21.50;55.77;98771.78;6236214;27;98102;-74
2022/06/13 00:44:40;;;;;;;;;11.00;11.00;;;;;21.28;55.40;98732.34;6244216;27;97267;-74
2022/06/13 00:47:44;;;;;;;;;11.00;10.60;;;;;21.55;55.52;98774.47;6228316;28;97510;-74
2022/06/13 00:50:53;;;;;;;;;11.00;10.00;;;;;21.54;55.67;98770.13;6236025;28;97110;-74
2022/06/13 00:53:56;;;;;;;;;11.00;10.60;;;;;21.50;55.52;98765.53;6232393;28;98320;-74
2022/06/13 00:57:01;;;;;;;;;10.00;10.00;;;;;21.18;55.50;98719.59;6236099;27;96596;-74
2022/06/13 01:00:11;;;;;;;;;11.40;10.00;;;;;21.36;56.27;98762.66;6234074;27;97031;-74
2022/06/13 01:03:15;;;;;;;;;10.00;9.60;;;;;21.28;56.08;98757.03;6226732;27;98260;-74
2022/06/13 01:06:19;;;;;;;;;11.00;11.00;;;;;21.21;56.10;98762.06;6233845;27;96652;-75
2022/06/13 01:11:16;;;;;;;;;12.00;11.00;;;;;21.14;56.27;98755.03;6263765;27;96563;-74
2022/06/13 01:12:46;;;;;;;;;9.80;9.00;;;;;21.01;56.36;98733.75;6244185;27;97451;-76
2022/06/13 01:16:16;;;;;;;;;10.00;9.60;;;;;21.01;56.66;98747.44;6240184;27;98482;-74
2022/06/13 01:20:01;;;;;;;;;10.20;10.00;;;;;20.99;57.05;98741.47;6251312;27;97271;-74
2022/06/13 01:23:39;;;;;;;;;10.00;10.00;;;;;20.94;57.28;98732.50;6235917;27;96583;-76
2022/06/13 01:27:09;;;;;;;;;11.00;10.00;;;;;20.62;57.47;98686.59;6236011;27;98285;-74
2022/06/13 01:30:46;;;;;;;;;10.50;10.00;;;;;20.91;58.01;98728.44;6256039;27;96524;-76
2022/06/13 01:34:03;;;;;;;;;10.00;8.40;;;;;20.84;57.97;98708.78;6231144;27;97421;-74
2022/06/13 01:37:17;;;;;;;;;10.00;10.00;;;;;20.92;58.10;98710.84;6243117;27;96644;-73
2022/06/13 01:40:32;;;;;;;;;10.00;10.00;;;;;20.94;57.47;98708.66;6219949;27;98432;-73
2022/06/13 01:43:50;;;;;;;;;9.40;9.40;;;;;20.81;57.79;98686.63;6244698;27;97514;-74
2022/06/13 01:47:05;;;;;;;;;10.60;10.00;;;;;20.95;57.20;98701.25;6251470;27;96748;-75
2022/06/13 01:50:18;;;;;;;;;10.00;10.00;;;;;20.97;56.80;98707.22;6236870;27;97170;-74
2022/06/13 01:53:28;;;;;;;;;11.60;11.00;;;;;20.94;56.95;98702.34;6243559;27;96662;-74
2022/06/13 01:56:40;;;;;;;;;10.50;8.50;;;;;20.88;56.82;98709.00;6238915;27;97305;-74
2022/06/13 01:59:55;;;;;;;;;10.00;9.00;;;;;20.88;57.01;98709.00;6243875;27;97050;-74
2022/06/13 02:03:10;;;;;;;;;11.00;10.50;;;;;20.88;56.66;98701.59;6237428;27;96907;-74
2022/06/13 02:06:18;;;;;;;;;10.25;9.25;;;;;20.91;56.33;98705.69;6227429;27;97108;-75
2022/06/13 02:09:26;;;;;;;;;10.60;9.00;;;;;20.61;56.48;98672.06;6231520;28;98618;-74
2022/06/13 02:12:35;;;;;;;;;10.40;10.00;;;;;20.74;56.74;98701.50;6255950;27;97362;-74
2022/06/13 02:15:45;;;;;;;;;9.00;9.00;;;;;20.68;56.74;98699.09;6231867;27;99477;-74
2022/06/13 02:18:58;;;;;;;;;10.00;9.50;;;;;20.60;56.75;98691.53;6262925;27;96309;-75
2022/06/13 02:22:08;;;;;;;;;11.00;9.40;;;;;20.53;56.72;98688.31;6250953;27;97600;-75
2022/06/13 02:25:19;;;;;;;;;11.00;10.00;;;;;20.29;56.57;98661.69;6251093;27;96788;-73
2022/06/13 02:28:29;;;;;;;;;10.25;10.00;;;;;20.37;56.88;98678.66;6240545;27;96456;-74
2022/06/13 02:31:38;;;;;;;;;9.60;9.00;;;;;20.11;56.99;98656.97;6255007;27;98089;-74
2022/06/13 02:34:48;;;;;;;;;9.67;9.67;;;;;20.22;57.31;98669.47;6261140;27;97117;-76
2022/06/13 02:37:56;;;;;;;;;9.60;9.00;;;;;20.13;57.96;98671.19;6238084;27;97058;-74
2022/06/13 02:41:04;;;;;;;;;9.40;9.40;;;;;20.12;57.95;98666.00;6252968;27;97447;-76
2022/06/13 02:44:12;;;;;;;;;10.00;9.00;;;;;20.12;57.72;98669.56;6254888;27;96652;-75
2022/06/13 02:47:25;;;;;;;;;11.40;10.40;;;;;20.16;57.39;98665.13;6240482;27;96485;-74
2022/06/13 02:50:36;;;;;;;;;11.00;10.00;;;;;20.21;57.71;98665.09;6244153;27;96890;-75
2022/06/13 02:53:48;;;;;;;;;8.20;8.20;;;;;20.00;57.89;98624.53;6260942;27;96827;-75
2022/06/13 03:00:43;;;;;;;;;10.00;10.00;;;;;20.35;57.67;98654.28;6234816;27;96778;-75
2022/06/13 03:03:57;;;;;;;;;10.40;10.00;;;;;20.40;57.56;98651.50;6234688;27;96693;-76
2022/06/13 03:07:08;;;;;;;;;8.00;8.00;;;;;20.49;57.69;98651.66;6236876;27;96961;-75
2022/06/13 03:10:17;;;;;;;;;7.60;7.60;;;;;20.61;57.46;98647.41;6240956;27;98351;-74
2022/06/13 03:13:30;;;;;;;;;6.00;6.00;;;;;20.75;55.23;98647.50;6223365;27;96967;-75
2022/06/13 03:16:41;;;;;;;;;7.60;7.00;;;;;20.94;55.26;98648.34;6257717;27;96553;-74
2022/06/13 03:19:50;;;;;;;;;7.00;7.00;;;;;21.14;54.48;98650.84;6241769;27;96806;-74
2022/06/13 03:23:02;;;;;;;;;7.00;7.00;;;;;21.32;52.18;98643.72;6237487;27;98049;-74
2022/06/13 03:26:12;;;;;;;;;6.00;6.00;;;;;21.52;51.25;98640.66;6256994;27;97512;-74
2022/06/13 03:29:20;;;;;;;;;5.80;5.00;;;;;19.96;50.80;98421.81;6216843;27;98748;-75
2022/06/13 03:32:29;;;;;;;;;7.40;7.00;;;;;21.94;50.32;98645.19;6258622;27;97377;-75
2022/06/13 03:35:34;;;;;;;;;9.00;8.40;;;;;22.12;50.67;98648.19;6229620;27;99756;-75
2022/06/13 03:38:45;;;;;;;;;7.00;7.00;;;;;22.22;50.75;98642.50;6233012;27;98516;-75
2022/06/13 03:41:54;;;;;;;;;6.40;6.40;;;;;22.35;50.05;98639.75;6243514;27;97499;-74
2022/06/13 03:45:05;;;;;;;;;8.00;7.00;;;;;22.51;49.31;98645.78;6210948;27;96820;-75
2022/06/13 03:48:13;;;;;;;;;9.00;9.00;;;;;22.65;50.42;98648.50;6239709;27;97438;-74
2022/06/13 03:51:21;;;;;;;;;11.75;10.00;;;;;22.72;50.67;98644.28;6243042;27;96768;-75
2022/06/13 03:54:33;;;;;;;;;10.80;10.00;;;;;22.64;50.92;98619.41;6219101;27;96661;-74
2022/06/13 03:57:41;;;;;;;;;11.00;10.00;;;;;22.83;51.28;98636.59;6252473;27;97036;-76
2022/06/13 04:00:51;;;;;;;;;12.00;11.00;;;;;22.91;51.18;98638.66;6241541;27;98776;-76
2022/06/13 04:03:56;;;;;;;;;11.80;10.80;;;;;22.96;51.40;98638.53;6258172;27;97641;-75
2022/06/13 04:07:01;;;;;;;;;9.00;8.00;;;;;22.86;51.02;98612.09;6242467;27;96904;-75
2022/06/13 04:10:10;;;;;;;;;12.60;11.00;;;;;22.86;51.23;98608.53;6261476;27;97381;-75
2022/06/13 04:13:29;;;;;;;;;11.80;9.80;;;;;22.93;51.20;98636.38;6234698;27;96788;-76
2022/06/13 04:16:46;;;;;;;;;10.00;10.00;;;;;23.03;51.36;98641.66;6233845;27;96916;-76
2022/06/13 04:19:56;;;;;;;;;11.25;10.00;;;;;22.83;50.93;98579.69;6222103;27;97496;-75
2022/06/13 04:23:15;;;;;;;;;10.20;10.00;;;;;23.44;50.71;98632.47;6247558;27;96722;-74
2022/06/13 04:26:29;;;;;;;;;9.00;9.00;;;;;23.67;50.18;98639.66;6243853;27;98438;-75
2022/06/13 04:29:40;;;;;;;;;9.00;8.00;;;;;23.91;49.92;98634.63;6245981;27;97197;-75
2022/06/13 04:32:52;;;;;;;;;9.00;8.00;;;;;24.12;48.55;98632.16;6260672;27;98319;-74
2022/06/13 04:35:56;;;;;;;;;10.20;9.80;;;;;24.32;47.59;98626.13;6261561;27;97630;-74
2022/06/13 04:39:05;;;;;;;;;9.00;8.00;;;;;24.39;47.31;98606.34;6215725;28;99795;-74
2022/06/13 04:42:12;;;;;;;;;6.00;6.00;;;;;24.58;45.00;98621.50;6263250;27;97426;-75
2022/06/13 04:45:21;;;;;;;;;7.00;7.00;;;;;24.51;43.73;98604.63;6242097;27;97880;-76
2022/06/13 04:48:26;;;;;;;;;8.00;7.00;;;;;24.23;43.38;98539.88;6239112;27;97926;-75
2022/06/13 04:51:37;;;;;;;;;6.20;6.20;;;;;24.92;44.24;98637.34;6239133;27;99109;-75
2022/06/13 04:54:45;;;;;;;;;8.00;8.00;;;;;25.13;44.02;98622.94;6256494;27;96642;-76
2022/06/13 04:57:50;;;;;;;;;8.00;7.00;;;;;25.26;43.51;98610.97;6250351;27;97221;-75
2022/06/13 05:01:01;;;;;;;;;9.00;8.00;;;;;25.35;43.52;98617.28;6254411;27;100001;-76
2022/06/13 05:04:07;;;;;;;;;7.00;7.00;;;;;25.42;42.98;98604.59;6259413;27;98052;-75
2022/06/13 05:07:14;;;;;;;;;8.00;8.00;;;;;25.46;42.45;98613.06;6238471;27;97522;-75
2022/06/13 05:10:22;;;;;;;;;9.00;8.00;;;;;25.54;42.38;98611.41;6261334;27;96676;-75
2022/06/13 05:13:27;;;;;;;;;7.00;6.00;;;;;25.53;42.32;98596.00;6220882;27;99638;-74
2022/06/13 05:16:41;;;;;;;;;8.00;8.00;;;;;25.74;42.23;98608.84;6235199;27;97108;-74
2022/06/13 05:19:55;;;;;;;;;8.40;8.00;;;;;25.86;42.03;98614.47;6253715;27;97615;-73
2022/06/13 05:23:15;;;;;;;;;7.20;7.00;;;;;25.86;42.06;98602.63;6239406;27;98389;-74
2022/06/13 05:26:20;;;;;;;;;8.00;8.00;;;;;25.98;41.74;98613.00;6257453;27;97468;-73
2022/06/13 05:29:25;;;;;;;;;9.00;8.00;;;;;26.10;42.07;98602.06;6256457;27;98159;-73
2022/06/13 05:32:29;;;;;;;;;8.00;7.00;;;;;26.16;41.87;98598.78;6249336;27;99215;-74
2022/06/13 05:35:36;;;;;;;;;6.00;6.00;;;;;26.30;42.08;98595.84;6220470;27;97822;-76
2022/06/13 05:38:42;;;;;;;;;6.20;6.00;;;;;26.49;41.45;98598.19;6226484;27;98550;-74
2022/06/13 05:41:45;;;;;;;;;8.00;7.00;;;;;26.56;41.25;98579.13;6229019;27;98627;-73
2022/06/13 05:44:50;;;;;;;;;7.00;6.00;;;;;26.74;39.81;98589.75;6260650;27;96666;-74
2022/06/13 05:47:54;;;;;;;;;7.40;7.00;;;;;26.89;39.09;98593.91;6261979;27;97365;-74
2022/06/13 05:50:58;;;;;;;;;6.60;6.00;;;;;26.84;38.01;98593.25;6259153;27;96541;-73
2022/06/13 05:54:01;;;;;;;;;6.00;6.00;;;;;26.83;38.12;98577.84;6237250;27;96585;-74
2022/06/13 05:57:05;;;;;;;;;5.00;5.00;;;;;26.89;38.01;98579.28;6251362;27;97433;-75
2022/06/13 06:00:18;;;;;;;;;5.80;5.80;;;;;27.13;38.93;98590.47;6237330;27;97351;-74
2022/06/13 06:03:21;;;;;;;;;6.00;6.00;;;;;27.27;38.21;98598.53;6244710;27;96393;-74
2022/06/13 06:06:27;;;;;;;;;7.00;7.00;;;;;27.45;38.98;98598.03;6262454;27;97218;-74
2022/06/13 06:09:31;;;;;;;;;6.60;6.60;;;;;27.61;39.43;98584.41;6262838;27;96370;-74
2022/06/13 06:12:34;;;;;;;;;8.00;7.00;;;;;27.80;39.56;98592.19;6244459;27;98577;-73
2022/06/13 06:15:39;;;;;;;;;6.00;6.00;;;;;27.97;39.19;98580.91;6243435;27;98640;-75
2022/06/13 06:18:43;;;;;;;;;8.40;8.40;;;;;28.15;39.10;98592.66;6254426;27;96579;-74
2022/06/13 06:21:46;;;;;;;;;8.00;7.00;;;;;28.37;38.84;98590.25;6236187;27;96661;-73
2022/06/13 06:24:49;;;;;;;;;7.00;7.00;;;;;28.55;38.62;98582.50;6257548;27;97998;-73
2022/06/13 06:27:53;;;;;;;;;6.60;6.00;;;;;28.84;38.41;98589.78;6240698;27;98988;-73
2022/06/13 06:30:59;;;;;;;;;7.00;7.00;;;;;29.09;38.42;98588.59;6260448;27;97517;-74
2022/06/13 06:34:02;;;;;;;;;7.00;6.00;;;;;29.22;36.85;98589.38;6261777;27;97533;-73
2022/06/13 06:37:06;;;;;;;;;8.00;6.00;;;;;29.25;36.01;98589.47;6247816;27;96840;-74
2022/06/13 06:40:13;;;;;;;;;6.00;6.00;;;;;29.25;35.23;98600.56;6244229;27;96629;-74
2022/06/13 06:43:16;;;;;;;;;5.80;5.80;;;;;29.34;35.75;98582.97;6260144;27;96623;-73
2022/06/13 06:46:21;;;;;;;;;6.40;6.00;;;;;29.47;34.92;98590.91;6240072;27;97671;-74
2022/06/13 06:49:25;;;;;;;;;6.00;6.00;;;;;29.71;34.56;98595.56;6242921;27;97804;-73
2022/06/13 06:52:28;;;;;;;;;7.40;7.00;;;;;29.94;35.21;98591.06;6249158;27;96839;-72
2022/06/13 07:02:15;;;;;;;;;7.40;6.60;;;;;30.72;33.82;98598.63;6241298;27;98206;-74
2022/06/13 07:05:18;;;;;;;;;7.75;7.75;;;;;30.72;33.61;98595.03;6261029;27;96781;-75
2022/06/13 07:08:22;;;;;;;;;8.60;7.40;;;;;30.80;33.64;98597.63;6260044;27;96975;-75
2022/06/13 07:14:48;;;;;;;;;8.00;8.00;;;;;31.28;33.47;98595.53;6230685;27;100397;-75
2022/06/13 07:17:53;;;;;;;;;6.00;6.00;;;;;31.52;32.77;98591.69;6248600;27;96764;-75
2022/06/13 07:20:57;;;;;;;;;8.20;7.00;;;;;31.74;32.33;98596.53;6248256;27;96993;-74
2022/06/13 07:24:00;;;;;;;;;7.00;7.00;;;;;31.86;31.67;98603.94;6266040;27;97572;-74
2022/06/13 07:27:04;;;;;;;;;7.00;6.00;;;;;31.94;30.96;98602.88;6247502;27;99468;-75
2022/06/13 07:30:08;;;;;;;;;6.00;6.00;;;;;31.85;31.08;98605.09;6247535;27;98387;-76
2022/06/13 07:33:13;;;;;;;;;7.00;6.00;;;;;31.67;31.41;98586.03;6264746;27;97492;-76
2022/06/13 07:36:17;;;;;;;;;8.00;6.40;;;;;31.69;30.45;98594.03;6247791;27;98741;-76
2022/06/13 07:39:20;;;;;;;;;6.00;6.00;;;;;31.81;30.09;98594.66;6247897;27;98512;-74
2022/06/13 07:42:24;;;;;;;;;7.40;7.40;;;;;31.88;29.57;98594.00;6244318;27;96800;-75
2022/06/13 07:45:32;;;;;;;;;7.00;7.00;;;;;31.93;30.83;98584.53;6250655;27;97374;-73
2022/06/13 07:48:54;;;;;;;;;7.00;7.00;;;;;31.98;30.22;98584.22;6233901;27;97987;-75
2022/06/13 07:51:58;;;;;;;;;6.00;6.00;;;;;31.86;31.01;98590.78;6247372;27;97557;-74
2022/06/13 07:55:01;;;;;;;;;9.00;9.00;;;;;31.70;31.31;98582.53;6246816;27;96401;-73
2022/06/13 07:58:05;;;;;;;;;9.00;8.60;;;;;31.67;31.74;98597.19;6246798;27;98323;-74
2022/06/13 08:01:11;;;;;;;;;7.80;7.00;;;;;31.85;32.03;98591.97;6246588;27;96556;-74
2022/06/13 08:04:16;;;;;;;;;9.40;8.40;;;;;31.95;32.15;98576.59;6246862;27;96412;-73
2022/06/13 08:07:19;;;;;;;;;8.80;8.20;;;;;31.74;31.82;98580.59;6246737;27;97529;-75
2022/06/13 08:10:23;;;;;;;;;11.00;11.00;;;;;31.82;31.71;98589.91;6208746;28;98237;-73
2022/06/13 08:13:27;;;;;;;;;10.00;9.00;;;;;31.83;31.82;98586.75;6237204;28;98392;-73
2022/06/13 08:16:31;;;;;;;;;9.00;8.00;;;;;31.98;32.85;98587.81;6222194;28;96231;-74
2022/06/13 08:19:36;;;;;;;;;8.60;8.00;;;;;32.14;31.90;98599.72;6221992;28;96811;-75
2022/06/13 08:22:44;;;;;;;;;10.00;9.25;;;;;32.14;31.82;98593.31;6239162;27;98013;-75
2022/06/13 08:25:49;;;;;;;;;9.75;9.25;;;;;32.06;30.97;98586.75;6222017;28;96510;-75
2022/06/13 08:28:52;;;;;;;;;9.00;9.00;;;;;32.09;30.91;98588.00;6230717;27;96930;-72
2022/06/13 08:31:57;;;;;;;;;9.80;9.00;;;;;32.22;30.35;98581.91;6228322;27;99033;-74
2022/06/13 08:35:01;;;;;;;;;9.00;8.00;;;;;32.44;29.22;98579.50;6265002;27;97876;-75
2022/06/13 08:38:05;;;;;;;;;9.00;9.00;;;;;32.61;28.94;98571.38;6245265;27;98512;-74
2022/06/13 08:41:21;;;;;;;;;9.00;8.20;;;;;32.76;27.89;98572.44;6264397;27;97620;-75
2022/06/13 08:44:47;;;;;;;;;9.00;9.00;;;;;33.07;28.84;98568.50;6265077;27;96364;-75
2022/06/13 08:47:58;;;;;;;;;8.40;8.40;;;;;33.37;27.82;98563.75;6264157;27;97516;-76
2022/06/13 08:51:08;;;;;;;;;8.00;7.00;;;;;33.69;28.24;98554.94;6245440;27;98729;-75
2022/06/13 08:54:17;;;;;;;;;7.75;7.75;;;;;33.71;26.92;98558.16;6264672;27;96398;-74
2022/06/13 08:57:25;;;;;;;;;8.00;7.00;;;;;33.36;26.72;98567.72;6264556;27;96588;-74
2022/06/13 09:00:31;;;;;;;;;8.00;8.00;;;;;33.19;27.20;98564.69;6263595;27;96615;-72
2022/06/13 09:03:44;;;;;;;;;8.00;8.00;;;;;32.92;26.15;98566.69;6246083;27;96965;-74
2022/06/13 09:06:54;;;;;;;;;7.00;6.40;;;;;32.77;26.89;98559.28;6246210;27;96985;-74
2022/06/13 09:10:02;;;;;;;;;8.00;8.00;;;;;33.01;27.79;98561.63;6245837;27;97002;-75
2022/06/13 09:13:13;;;;;;;;;8.80;8.20;;;;;33.03;28.34;98562.88;6245966;27;96264;-75
2022/06/13 09:16:22;;;;;;;;;10.00;9.00;;;;;33.25;27.90;98544.44;6245574;27;97550;-73
2022/06/13 09:19:33;;;;;;;;;9.00;9.00;;;;;33.47;27.78;98559.47;6245528;27;99067;-73
2022/06/13 09:22:44;;;;;;;;;10.00;10.00;;;;;33.34;27.32;98542.13;6245131;27;96939;-74
2022/06/13 09:25:54;;;;;;;;;11.00;10.40;;;;;33.48;27.83;98561.06;6246371;27;97114;-73
2022/06/13 09:29:07;;;;;;;;;9.50;8.00;;;;;33.41;27.38;98550.63;6245207;27;96659;-75
2022/06/13 09:32:16;;;;;;;;;9.00;8.00;;;;;33.52;27.48;98567.53;6263655;27;96385;-74
2022/06/13 09:35:21;;;;;;;;;9.80;8.00;;;;;33.39;27.54;98569.75;6262600;27;97358;-75
2022/06/13 09:38:29;;;;;;;;;9.00;9.00;;;;;33.22;27.80;98566.75;6249791;27;96643;-74
2022/06/13 09:42:04;;;;;;;;;9.80;9.80;;;;;33.22;28.50;98566.75;6222322;28;98749;-74
2022/06/13 09:45:27;;;;;;;;;10.80;10.80;;;;;33.51;28.54;98563.91;6221445;28;96560;-75
2022/06/13 09:48:40;;;;;;;;;11.00;9.00;;;;;33.66;27.92;98567.69;6238473;27;96418;-74
2022/06/13 09:52:02;;;;;;;;;11.00;10.00;;;;;33.79;28.21;98568.25;6245001;27;97480;-75
2022/06/13 09:55:16;;;;;;;;;13.00;12.00;;;;;34.04;27.90;98555.31;6245035;27;96984;-73
2022/06/13 09:58:31;;;;;;;;;12.00;11.50;;;;;34.59;27.47;98545.00;6262877;27;96904;-74
2022/06/13 10:01:44;;;;;;;;;11.60;10.00;;;;;35.05;27.03;98544.50;6262149;27;96685;-74
2022/06/13 10:04:58;;;;;;;;;12.00;11.00;;;;;35.35;27.00;98561.91;6244293;27;97553;-76
2022/06/13 10:08:17;;;;;;;;;12.50;11.25;;;;;35.36;26.78;98557.09;6244012;27;97035;-74
2022/06/13 10:11:51;;;;;;;;;10.60;10.00;;;;;35.46;27.00;98573.16;6234957;27;98318;-74
2022/06/13 10:15:10;;;;;;;;;10.00;10.00;;;;;35.33;26.97;98563.50;6260129;27;97956;-75
2022/06/13 10:18:33;;;;;;;;;9.40;9.00;;;;;35.25;26.91;98559.84;6251486;27;96543;-74
2022/06/13 10:21:44;;;;;;;;;11.00;11.00;;;;;34.91;27.07;98567.63;6240875;27;98565;-74
2022/06/13 10:25:03;;;;;;;;;10.80;10.00;;;;;34.57;27.69;98564.19;6227294;27;97781;-74
2022/06/13 10:28:22;;;;;;;;;9.25;9.00;;;;;34.00;26.93;98557.28;6262718;27;96414;-76
2022/06/13 10:31:40;;;;;;;;;9.25;8.25;;;;;33.58;27.46;98567.97;6260965;27;96412;-74
2022/06/13 10:34:58;;;;;;;;;8.00;8.00;;;;;33.07;28.30;98572.09;6243716;27;98947;-73
2022/06/13 10:38:15;;;;;;;;;8.00;8.00;;;;;32.91;28.76;98570.66;6261928;27;96487;-75
2022/06/13 10:41:20;;;;;;;;;7.20;7.00;;;;;32.73;28.49;98550.88;6262109;27;97003;-74
2022/06/13 10:44:24;;;;;;;;;9.00;7.40;;;;;32.84;29.25;98562.97;6244113;27;96618;-75
2022/06/13 10:47:40;;;;;;;;;7.20;7.20;;;;;32.85;28.87;98552.63;6231384;27;99774;-73
2022/06/13 10:50:48;;;;;;;;;7.00;7.00;;;;;32.78;29.88;98560.91;6266790;27;96661;-74
2022/06/13 10:53:57;;;;;;;;;7.25;7.25;;;;;32.51;28.94;98560.06;6248707;27;97535;-73
2022/06/13 10:57:06;;;;;;;;;7.00;7.00;;;;;32.40;29.55;98554.28;6245500;27;97426;-73
2022/06/13 11:00:17;;;;;;;;;8.00;8.00;;;;;32.32;29.70;98566.53;6266258;27;97101;-74
2022/06/13 11:03:20;;;;;;;;;8.00;8.00;;;;;32.24;30.60;98567.59;6239119;27;97269;-74
2022/06/13 11:06:30;;;;;;;;;7.00;7.00;;;;;32.10;30.65;98570.13;6223036;28;98379;-74
2022/06/13 11:09:38;;;;;;;;;9.00;8.00;;;;;32.00;30.49;98565.16;6251788;27;97003;-74
2022/06/13 11:12:41;;;;;;;;;9.40;8.00;;;;;31.98;31.08;98556.34;6247894;27;98392;-74
2022/06/13 11:22:40;;;;;;;;;8.00;6.00;;;;;30.43;31.66;98547.03;6260541;27;96626;-75
2022/06/13 11:25:46;;;;;;;;;6.00;6.00;;;;;30.11;32.17;98557.34;6266246;27;96513;-75
2022/06/13 11:28:50;;;;;;;;;5.80;5.80;;;;;29.85;32.81;98554.28;6265885;27;98032;-74
2022/06/13 11:31:57;;;;;;;;;5.00;5.00;;;;;29.62;33.42;98556.81;6247442;27;99892;-74
2022/06/13 11:35:00;;;;;;;;;7.00;6.00;;;;;29.56;32.93;98544.38;6247711;27;97128;-75
2022/06/13 11:38:19;;;;;;;;;5.00;5.00;;;;;29.37;33.53;98515.66;6264477;27;97658;-73
2022/06/13 11:41:29;;;;;;;;;6.00;6.00;;;;;29.49;33.84;98544.16;6248088;27;96402;-74
2022/06/13 11:44:42;;;;;;;;;5.00;5.00;;;;;29.47;33.97;98552.03;6266152;27;96804;-76
2022/06/13 11:47:49;;;;;;;;;6.00;6.00;;;;;29.52;33.25;98557.31;6266083;27;96405;-74
2022/06/13 11:51:00;;;;;;;;;4.00;4.00;;;;;29.51;33.14;98549.38;6247579;27;98483;-74
2022/06/13 11:54:06;;;;;;;;;4.60;4.60;;;;;29.58;33.11;98555.09;6246762;27;97362;-74
2022/06/13 11:57:31;;;;;;;;;6.40;6.00;;;;;29.60;33.25;98550.00;6246420;27;97240;-74
2022/06/13 12:00:48;;;;;;;;;7.00;6.00;;;;;29.67;32.64;98551.00;6240181;28;96824;-76
2022/06/13 12:04:03;;;;;;;;;5.60;5.60;;;;;29.50;33.58;98511.63;6222682;28;96516;-76
2022/06/13 12:07:22;;;;;;;;;6.40;6.00;;;;;29.78;34.10;98554.06;6239595;28;97544;-75
2022/06/13 12:10:28;;;;;;;;;5.00;5.00;;;;;29.52;34.08;98520.41;6240516;28;96390;-75
2022/06/13 12:13:33;;;;;;;;;7.00;6.00;;;;;29.65;33.71;98539.47;6263959;27;96513;-73
2022/06/13 12:16:42;;;;;;;;;6.00;5.00;;;;;29.56;34.40;98532.44;6258142;27;96572;-74
2022/06/13 12:19:55;;;;;;;;;7.60;7.60;;;;;29.55;35.03;98534.41;6265630;27;96555;-73
2022/06/13 12:23:04;;;;;;;;;7.00;7.00;;;;;29.57;35.36;98523.75;6246965;27;96419;-73
2022/06/13 12:26:17;;;;;;;;;6.75;6.75;;;;;29.42;36.01;98509.84;6264974;27;97938;-74
2022/06/13 12:29:42;;;;;;;;;6.40;6.40;;;;;29.24;36.81;98503.75;6246575;27;97720;-74
2022/06/13 12:32:52;;;;;;;;;6.00;6.00;;;;;29.16;37.29;98510.25;6247183;27;97977;-75
2022/06/13 12:36:15;;;;;;;;;5.00;5.00;;;;;28.92;37.45;98515.91;6250376;27;96969;-74
2022/06/13 12:39:47;;;;;;;;;5.25;5.00;;;;;28.84;38.03;98523.19;6229419;27;99051;-74
2022/06/13 12:43:33;;;;;;;;;5.00;5.00;;;;;28.87;38.64;98516.97;6265102;27;96379;-75
2022/06/13 12:46:56;;;;;;;;;5.20;5.00;;;;;28.87;38.16;98513.38;6264826;27;96886;-75
2022/06/13 12:50:31;;;;;;;;;6.50;6.00;;;;;28.91;37.48;98504.00;6264562;27;96352;-75
2022/06/13 12:54:07;;;;;;;;;4.50;4.00;;;;;28.79;37.56;98498.47;6262335;27;96854;-75
2022/06/13 12:57:35;;;;;;;;;6.00;6.00;;;;;28.79;36.85;98490.13;6244870;27;96836;-74
2022/06/13 13:00:46;;;;;;;;;4.00;4.00;;;;;28.71;36.23;98489.13;6242041;27;96734;-74
2022/06/13 13:04:18;;;;;;;;;5.00;4.00;;;;;28.79;36.95;98493.72;6241328;27;97491;-74
2022/06/13 13:07:28;;;;;;;;;6.00;5.40;;;;;28.99;36.45;98494.69;6249782;27;97144;-76
2022/06/13 13:10:49;;;;;;;;;4.00;4.00;;;;;29.24;35.41;98500.97;6245399;27;96640;-75
2022/06/13 13:14:01;;;;;;;;;5.00;4.00;;;;;29.47;35.12;98499.25;6229933;28;99716;-76
2022/06/13 13:17:18;;;;;;;;;5.00;5.00;;;;;29.56;35.41;98488.00;6234250;27;98074;-74
2022/06/13 13:20:28;;;;;;;;;6.00;6.00;;;;;29.59;35.17;98501.16;6264146;27;96941;-74
2022/06/13 13:23:40;;;;;;;;;5.00;5.00;;;;;29.52;34.88;98510.09;6245324;27;98113;-74
2022/06/13 13:26:55;;;;;;;;;4.20;4.20;;;;;29.28;35.10;98491.56;6244602;27;97483;-75
2022/06/13 13:30:06;;;;;;;;;5.40;4.00;;;;;29.38;35.62;98506.94;6263533;27;97487;-75
2022/06/13 13:33:24;;;;;;;;;5.00;5.00;;;;;29.37;35.80;98508.09;6244674;27;97947;-75
2022/06/13 13:36:36;;;;;;;;;6.40;6.00;;;;;29.22;36.05;98512.41;6245714;27;96721;-74
2022/06/13 13:39:45;;;;;;;;;4.20;4.20;;;;;29.09;36.91;98505.31;6244622;27;97832;-74
2022/06/13 13:42:55;;;;;;;;;5.00;5.00;;;;;29.01;37.52;98511.81;6245106;27;98352;-76
2022/06/13 13:46:09;;;;;;;;;6.00;6.00;;;;;28.91;36.97;98517.88;6262140;27;97474;-74
2022/06/13 13:49:20;;;;;;;;;5.60;5.00;;;;;28.86;37.22;98518.09;6216473;27;96538;-76
2022/06/13 13:52:30;;;;;;;;;7.00;6.00;;;;;28.67;37.54;98515.13;6263347;27;96858;-73
2022/06/13 13:55:39;;;;;;;;;6.00;5.00;;;;;28.43;37.46;98502.09;6263240;27;96970;-75
2022/06/13 13:58:46;;;;;;;;;6.75;6.00;;;;;28.30;37.87;98522.66;6245221;27;96607;-75
2022/06/13 14:02:02;;;;;;;;;9.00;9.00;;;;;28.01;38.79;98510.59;6246760;27;96900;-73
2022/06/13 14:05:17;;;;;;;;;9.00;9.00;;;;;27.56;39.61;98480.19;6220167;28;96488;-76
2022/06/13 14:08:24;;;;;;;;;7.20;6.20;;;;;27.57;39.91;98503.16;6220170;28;96654;-74
2022/06/13 14:11:27;;;;;;;;;8.00;7.00;;;;;27.36;40.08;98489.34;6219593;28;98097;-74
2022/06/13 14:14:52;;;;;;;;;6.00;6.00;;;;;27.06;40.56;98501.69;6218911;28;96827;-74
2022/06/13 14:17:58;;;;;;;;;5.00;5.00;;;;;26.97;40.24;98503.72;6258761;27;98243;-74
2022/06/13 14:21:02;;;;;;;;;6.00;6.00;;;;;26.70;40.85;98499.50;6256150;27;97972;-74
2022/06/13 14:24:11;;;;;;;;;7.00;6.00;;;;;26.63;41.35;98502.78;6262002;27;96655;-74
2022/06/13 14:27:14;;;;;;;;;7.00;7.00;;;;;26.40;42.90;98507.00;6262777;27;97432;-75
2022/06/13 14:37:23;;;;;;;;;7.20;7.00;;;;;25.94;44.49;98529.19;6242629;27;96723;-74
2022/06/13 14:40:35;;;;;;;;;7.00;7.00;;;;;25.77;45.55;98538.31;6243106;27;96856;-75
2022/06/13 14:43:49;;;;;;;;;7.00;7.00;;;;;25.30;48.17;98487.75;6238497;27;97521;-75
2022/06/13 14:47:07;;;;;;;;;5.00;5.00;;;;;25.40;49.61;98553.66;6202311;28;97026;-77
2022/06/13 14:50:11;;;;;;;;;7.00;6.00;;;;;25.02;50.17;98551.53;6238327;28;96730;-77
2022/06/13 14:53:39;;;;;;;;;5.80;5.20;;;;;24.73;51.44;98575.34;6236998;28;97573;-76
2022/06/13 14:56:44;;;;;;;;;5.75;5.75;;;;;24.39;51.58;98592.59;6238231;28;96325;-77
2022/06/13 15:00:10;;;;;;;;;4.20;4.00;;;;;24.05;51.74;98602.28;6237227;28;96757;-76
2022/06/13 15:03:15;;;;;;;;;5.40;5.00;;;;;23.75;52.60;98614.91;6202537;28;98675;-76
2022/06/13 15:06:21;;;;;;;;;3.40;3.40;;;;;23.47;52.41;98612.63;6202408;28;97082;-76
2022/06/13 15:09:30;;;;;;;;;4.00;4.00;;;;;23.43;52.56;98647.34;6235278;27;97351;-75
2022/06/13 15:12:41;;;;;;;;;5.80;5.20;;;;;23.20;53.71;98666.59;6261904;27;97855;-77
2022/06/13 15:15:47;;;;;;;;;5.40;4.40;;;;;22.98;54.14;98713.25;6216346;28;98106;-77
2022/06/13 15:18:59;;;;;;;;;4.00;4.00;;;;;22.20;54.86;98694.97;6218913;28;97296;-75